Time;durP1;ratioP1;P1;durP2;ratioP2;P2;SDS_P1;SDS_P2;PMS_P1;PMS_P2;Temp;Humidity;BMP_temperature;BMP_pressure;BME280_temperature;BME280_humidity;BME280_pressure;Samples;Min_cycle;Max_cycle;Signal;HPM_P1;HPM_P2
2022/02/27 00:01:17;;;;;;;;;;;2.30;90.40;;;;;;5053402;28;20364;-72
2022/02/27 00:03:42;;;;;;;;;;;2.40;90.20;;;;;;5051944;28;19909;-72
2022/02/27 00:06:08;;;;;;;;;;;2.50;89.60;;;;;;5053281;28;19909;-72
2022/02/27 00:08:34;;;;;;;;;;;2.40;90.10;;;;;;5053237;28;19909;-72
2022/02/27 00:11:00;;;;;;;;;;;2.50;89.90;;;;;;5053147;28;19975;-72
2022/02/27 00:13:25;;;;;;;;;;;2.50;89.60;;;;;;5051957;28;19909;-72
2022/02/27 00:15:51;;;;;;;;;;;2.50;89.70;;;;;;5053085;28;19939;-72
2022/02/27 00:18:16;;;;;;;;;;;2.40;89.10;;;;;;5053210;28;19931;-72
2022/02/27 00:20:44;;;;;;;;;;;2.30;89.60;;;;;;5053422;28;19909;-73
2022/02/27 00:23:09;;;;;;;;;;;2.30;89.70;;;;;;5052924;28;20084;-73
2022/02/27 00:25:35;;;;;;;;;;;2.20;88.90;;;;;;5052894;28;20431;-73
2022/02/27 00:28:01;;;;;;;;;;;2.10;89.60;;;;;;5052982;28;19951;-73
2022/02/27 00:30:27;;;;;;;;;;;2.10;90.10;;;;;;5052836;28;19917;-73
2022/02/27 00:32:53;;;;;;;;;;;2.20;90.20;;;;;;5051470;28;20007;-72
2022/02/27 00:35:18;;;;;;;;;;;2.20;90.30;;;;;;5052668;28;19909;-72
2022/02/27 00:37:44;;;;;;;;;;;2.10;89.70;;;;;;5052527;28;19908;-73
2022/02/27 00:40:10;;;;;;;;;;;1.90;90.30;;;;;;5051461;28;19912;-72
2022/02/27 00:42:36;;;;;;;;;;;1.70;90.50;;;;;;5052532;28;19917;-72
2022/02/27 00:45:02;;;;;;;;;;;1.50;91.00;;;;;;5051388;28;19909;-73
2022/02/27 00:47:28;;;;;;;;;;;1.30;91.50;;;;;;5052483;28;19998;-72
2022/02/27 00:49:53;;;;;;;;;;;1.20;91.60;;;;;;5068039;28;20356;-73
2022/02/27 00:52:22;;;;;;;;;;;1.20;92.30;;;;;;5052716;28;19923;-72
2022/02/27 00:54:51;;;;;;;;;;;1.20;92.60;;;;;;5052173;28;19919;-72
2022/02/27 00:57:17;;;;;;;;;;;1.10;92.60;;;;;;5052450;28;19916;-72
2022/02/27 00:59:44;;;;;;;;;;;1.10;93.10;;;;;;5052416;28;20102;-73
2022/02/27 01:02:10;;;;;;;;;;;1.10;93.30;;;;;;5052416;28;19919;-73
2022/02/27 01:04:36;;;;;;;;;;;1.10;93.10;;;;;;5052347;28;19915;-73
2022/02/27 01:07:02;;;;;;;;;;;1.20;93.70;;;;;;5052206;28;19999;-73
2022/02/27 01:09:27;;;;;;;;;;;1.40;94.00;;;;;;5052595;28;20372;-72
2022/02/27 01:11:53;;;;;;;;;;;1.40;93.30;;;;;;5051054;28;20008;-73
2022/02/27 01:14:18;;;;;;;;;;;1.30;93.20;;;;;;5052131;28;20422;-72
2022/02/27 01:16:44;;;;;;;;;;;1.30;93.40;;;;;;5052296;28;19962;-72
2022/02/27 01:19:10;;;;;;;;;;;1.20;93.40;;;;;;5052401;28;19912;-73
2022/02/27 01:21:35;;;;;;;;;;;1.10;93.90;;;;;;5050941;28;19909;-72
2022/02/27 01:24:01;;;;;;;;;;;1.10;93.90;;;;;;5052204;28;19909;-72
2022/02/27 01:26:27;;;;;;;;;;;1.20;94.60;;;;;;5052022;28;20391;-73
2022/02/27 01:28:52;;;;;;;;;;;1.40;94.10;;;;;;5052034;28;19909;-73
2022/02/27 01:31:18;;;;;;;;;;;1.40;93.70;;;;;;5052289;28;19917;-73
2022/02/27 01:33:43;;;;;;;;;;;1.50;94.80;;;;;;5050732;28;20338;-72
2022/02/27 01:36:09;;;;;;;;;;;1.60;94.40;;;;;;5051954;28;19913;-72
2022/02/27 01:38:35;;;;;;;;;;;1.60;93.90;;;;;;5052061;28;19913;-72
2022/02/27 01:41:01;;;;;;;;;;;1.50;94.00;;;;;;5050751;28;20288;-73
2022/02/27 01:43:27;;;;;;;;;;;1.50;94.50;;;;;;5051965;28;19909;-73
2022/02/27 01:45:52;;;;;;;;;;;1.60;94.80;;;;;;5051834;28;20364;-72
2022/02/27 01:48:18;;;;;;;;;;;1.50;95.20;;;;;;5052077;28;19940;-73
2022/02/27 01:50:43;;;;;;;;;;;1.60;95.30;;;;;;5051949;28;19966;-72
2022/02/27 01:53:09;;;;;;;;;;;1.60;95.20;;;;;;5050662;28;19959;-72
2022/02/27 01:55:35;;;;;;;;;;;1.80;94.90;;;;;;5051821;28;20004;-73
2022/02/27 01:58:00;;;;;;;;;;;1.80;94.40;;;;;;5051877;28;19909;-72
2022/02/27 02:00:26;;;;;;;;;;;1.90;94.70;;;;;;5050734;28;19909;-72
2022/02/27 02:02:52;;;;;;;;;;;1.80;93.90;;;;;;5051916;28;20019;-72
2022/02/27 02:05:18;;;;;;;;;;;1.80;94.90;;;;;;5051748;28;20180;-72
2022/02/27 02:07:43;;;;;;;;;;;1.80;94.50;;;;;;5054943;28;19909;-73
2022/02/27 02:10:09;;;;;;;;;;;1.80;94.60;;;;;;5055509;28;19920;-72
2022/02/27 02:12:35;;;;;;;;;;;1.70;94.20;;;;;;5070829;28;19919;-72
2022/02/27 02:15:01;;;;;;;;;;;1.70;94.70;;;;;;5055375;28;19915;-72
2022/02/27 02:17:28;;;;;;;;;;;1.80;94.70;;;;;;5055229;28;19909;-72
2022/02/27 02:19:55;;;;;;;;;;;1.70;94.90;;;;;;5055342;28;20190;-72
2022/02/27 02:22:20;;;;;;;;;;;1.80;95.00;;;;;;5055328;28;20506;-72
2022/02/27 02:24:46;;;;;;;;;;;1.80;94.80;;;;;;5070563;28;20229;-72
2022/02/27 02:27:12;;;;;;;;;;;1.80;94.40;;;;;;5070507;28;19935;-73
2022/02/27 02:29:38;;;;;;;;;;;1.60;94.40;;;;;;5055203;28;19935;-73
2022/02/27 02:32:04;;;;;;;;;;;1.50;94.00;;;;;;5037137;28;19956;-72
2022/02/27 02:34:29;;;;;;;;;;;1.40;94.80;;;;;;5055727;28;19954;-73
2022/02/27 02:36:56;;;;;;;;;;;1.40;95.20;;;;;;5054714;28;19909;-73
2022/02/27 02:39:22;;;;;;;;;;;1.20;95.30;;;;;;5054958;28;19991;-72
2022/02/27 02:41:47;;;;;;;;;;;1.10;95.70;;;;;;5054827;28;19917;-72
2022/02/27 02:44:14;;;;;;;;;;;1.00;96.20;;;;;;5070223;28;19955;-72
2022/02/27 02:46:40;;;;;;;;;;;0.90;96.90;;;;;;5055202;28;19916;-72
2022/02/27 02:49:06;;;;;;;;;;;0.80;97.20;;;;;;5070396;28;19951;-72
2022/02/27 02:51:32;;;;;;;;;;;0.70;97.60;;;;;;5053587;28;19919;-72
2022/02/27 02:53:58;;;;;;;;;;;0.60;97.80;;;;;;5054746;28;19909;-72
2022/02/27 02:56:24;;;;;;;;;;;0.50;98.80;;;;;;5053268;28;19913;-72
2022/02/27 02:58:50;;;;;;;;;;;0.60;99.90;;;;;;5054586;28;20042;-71
2022/02/27 03:01:16;;;;;;;;;;;0.80;99.90;;;;;;5054575;28;19931;-72
2022/02/27 03:03:43;;;;;;;;;;;1.00;99.90;;;;;;5054399;28;19916;-72
2022/02/27 03:06:10;;;;;;;;;;;1.20;99.90;;;;;;5054353;28;20368;-73
2022/02/27 03:08:37;;;;;;;;;;;1.30;99.90;;;;;;5054402;28;19909;-72
2022/02/27 03:11:02;;;;;;;;;;;1.60;99.90;;;;;;5054285;28;19936;-72
2022/02/27 03:13:28;;;;;;;;;;;1.60;99.80;;;;;;5054334;28;19909;-73
2022/02/27 03:15:54;;;;;;;;;;;1.50;99.90;;;;;;5054210;28;20007;-73
2022/02/27 03:18:19;;;;;;;;;;;1.60;99.90;;;;;;5053990;28;19913;-73
2022/02/27 03:20:45;;;;;;;;;;;1.60;99.90;;;;;;5054265;28;19913;-73
2022/02/27 03:23:10;;;;;;;;;;;1.70;99.90;;;;;;5054129;28;19909;-72
2022/02/27 03:25:36;;;;;;;;;;;1.80;99.90;;;;;;5054114;28;19909;-72
2022/02/27 03:28:02;;;;;;;;;;;1.80;99.90;;;;;;5054139;28;19909;-72
2022/02/27 03:30:28;;;;;;;;;;;1.80;99.90;;;;;;5053929;28;20337;-73
2022/02/27 03:32:53;;;;;;;;;;;1.80;99.90;;;;;;5053919;28;19915;-73
2022/02/27 03:35:19;;;;;;;;;;;2.00;99.90;;;;;;5053854;28;19915;-72
2022/02/27 03:37:49;;;;;;;;;;;2.10;99.90;;;;;;5069141;28;20004;-72
2022/02/27 03:40:15;;;;;;;;;;;2.20;99.90;;;;;;5052599;28;19909;-72
2022/02/27 03:42:41;;;;;;;;;;;2.20;99.90;;;;;;5053684;28;20399;-73
2022/02/27 03:45:06;;;;;;;;;;;2.00;99.40;;;;;;5053553;28;19913;-73
2022/02/27 03:47:32;;;;;;;;;;;1.80;99.90;;;;;;5053599;28;19916;-72
2022/02/27 03:49:58;;;;;;;;;;;1.40;99.90;;;;;;5053658;28;19944;-72
2022/02/27 03:52:23;;;;;;;;;;;1.10;99.90;;;;;;5053456;28;19923;-73
2022/02/27 03:54:49;;;;;;;;;;;1.20;99.90;;;;;;5052283;28;19909;-71
2022/02/27 03:57:14;;;;;;;;;;;1.40;99.90;;;;;;5068653;28;20336;-72
2022/02/27 03:59:40;;;;;;;;;;;1.60;99.90;;;;;;5053394;28;19909;-72
2022/02/27 04:02:06;;;;;;;;;;;1.60;99.90;;;;;;5052047;28;19913;-72
2022/02/27 04:04:32;;;;;;;;;;;1.40;99.90;;;;;;5052022;28;19908;-72
2022/02/27 04:06:57;;;;;;;;;;;1.30;99.90;;;;;;5053258;28;19948;-72
2022/02/27 04:09:23;;;;;;;;;;;1.30;99.90;;;;;;5052099;28;20360;-73
2022/02/27 04:11:48;;;;;;;;;;;1.00;99.90;;;;;;5053128;28;19920;-73
2022/02/27 04:14:14;;;;;;;;;;;1.00;99.90;;;;;;5068389;28;19908;-73
2022/02/27 04:16:40;;;;;;;;;;;1.10;99.90;;;;;;5053060;28;20007;-73
2022/02/27 04:19:06;;;;;;;;;;;1.10;99.90;;;;;;5053111;28;19995;-72
2022/02/27 04:21:32;;;;;;;;;;;1.10;99.90;;;;;;5053174;28;19909;-72
2022/02/27 04:23:58;;;;;;;;;;;1.30;99.90;;;;;;5052919;28;19963;-72
2022/02/27 04:26:23;;;;;;;;;;;1.30;99.90;;;;;;5052959;28;19908;-72
2022/02/27 04:28:49;;;;;;;;;;;1.10;99.90;;;;;;5050938;28;19909;-73
2022/02/27 04:31:14;;;;;;;;;;;1.10;99.90;;;;;;5068187;28;19913;-72
2022/02/27 04:33:40;;;;;;;;;;;1.20;99.90;;;;;;5051446;28;19915;-72
2022/02/27 04:36:06;;;;;;;;;;;1.10;99.90;;;;;;5051512;28;19959;-73
2022/02/27 04:38:31;;;;;;;;;;;1.10;99.90;;;;;;5052635;28;19909;-72
2022/02/27 04:40:57;;;;;;;;;;;1.20;99.90;;;;;;5066504;22;19982;-73
2022/02/27 04:43:23;;;;;;;;;;;1.20;99.90;;;;;;5052722;28;19913;-73
2022/02/27 04:45:48;;;;;;;;;;;1.10;99.90;;;;;;5053133;28;19909;-73
2022/02/27 04:48:14;;;;;;;;;;;1.10;99.90;;;;;;5051710;28;19920;-73
2022/02/27 04:50:40;;;;;;;;;;;1.10;99.90;;;;;;5052684;28;20433;-73
2022/02/27 04:53:05;;;;;;;;;;;1.20;99.90;;;;;;5053049;28;19942;-73
2022/02/27 04:55:31;;;;;;;;;;;1.20;99.90;;;;;;5052914;28;19909;-73
2022/02/27 04:57:57;;;;;;;;;;;1.20;99.90;;;;;;5053009;28;19920;-72
2022/02/27 05:00:22;;;;;;;;;;;1.10;99.90;;;;;;5052947;28;19909;-73
2022/02/27 05:02:48;;;;;;;;;;;1.00;99.90;;;;;;5052896;28;19909;-73
2022/02/27 05:05:14;;;;;;;;;;;1.10;99.90;;;;;;5052766;28;19913;-73
2022/02/27 05:07:39;;;;;;;;;;;1.20;99.90;;;;;;5052913;28;19909;-73
2022/02/27 05:10:08;;;;;;;;;;;1.20;99.90;;;;;;5052882;28;19912;-73
2022/02/27 05:12:38;;;;;;;;;;;0.90;99.90;;;;;;5052993;28;19920;-73
2022/02/27 05:15:04;;;;;;;;;;;0.90;99.90;;;;;;5052734;28;19909;-72
2022/02/27 05:17:30;;;;;;;;;;;0.80;99.90;;;;;;5052586;28;19909;-73
2022/02/27 05:19:55;;;;;;;;;;;0.90;99.90;;;;;;5052729;28;19916;-72
2022/02/27 05:22:21;;;;;;;;;;;1.00;99.90;;;;;;5052772;28;19912;-73
2022/02/27 05:24:47;;;;;;;;;;;1.00;99.90;;;;;;5051396;28;19909;-73
2022/02/27 05:27:12;;;;;;;;;;;1.10;99.90;;;;;;5052608;28;19908;-72
2022/02/27 05:29:38;;;;;;;;;;;1.00;99.90;;;;;;5051555;28;19909;-73
2022/02/27 05:32:04;;;;;;;;;;;0.90;99.90;;;;;;5052549;28;19917;-72
2022/02/27 05:34:29;;;;;;;;;;;0.80;99.90;;;;;;5052117;28;19909;-74
2022/02/27 05:36:55;;;;;;;;;;;0.80;99.90;;;;;;5051311;28;19909;-73
2022/02/27 05:39:21;;;;;;;;;;;0.90;99.90;;;;;;5052473;28;19909;-73
2022/02/27 05:41:46;;;;;;;;;;;0.90;99.90;;;;;;5055779;28;19908;-73
2022/02/27 05:44:12;;;;;;;;;;;0.90;99.90;;;;;;5056266;28;20360;-73
2022/02/27 05:46:38;;;;;;;;;;;1.00;99.90;;;;;;5056532;28;19909;-73
2022/02/27 05:49:03;;;;;;;;;;;0.90;99.90;;;;;;5056399;28;19954;-73
2022/02/27 05:51:29;;;;;;;;;;;0.90;99.90;;;;;;5056287;28;20011;-73
2022/02/27 05:53:54;;;;;;;;;;;1.00;99.90;;;;;;5056226;28;19912;-73
2022/02/27 05:56:20;;;;;;;;;;;0.90;99.90;;;;;;5056345;28;19909;-73
2022/02/27 05:58:46;;;;;;;;;;;0.80;99.90;;;;;;5056288;28;19920;-73
2022/02/27 06:01:12;;;;;;;;;;;0.80;99.90;;;;;;5054958;28;19954;-73
2022/02/27 06:03:38;;;;;;;;;;;1.00;99.90;;;;;;5055996;28;19912;-72
2022/02/27 06:06:03;;;;;;;;;;;1.20;99.90;;;;;;5056405;28;19909;-73
2022/02/27 06:08:30;;;;;;;;;;;1.40;99.90;;;;;;5056186;28;20356;-73
2022/02/27 06:10:56;;;;;;;;;;;1.50;99.90;;;;;;5054679;28;19913;-73
2022/02/27 06:13:21;;;;;;;;;;;1.60;99.90;;;;;;5054676;28;20330;-73
2022/02/27 06:15:47;;;;;;;;;;;1.70;99.90;;;;;;5055597;28;19915;-73
2022/02/27 06:18:13;;;;;;;;;;;1.70;99.90;;;;;;5055331;28;19909;-73
2022/02/27 06:20:38;;;;;;;;;;;1.70;99.90;;;;;;5054585;28;19920;-73
2022/02/27 06:23:04;;;;;;;;;;;1.50;99.90;;;;;;5054228;28;20442;-73
2022/02/27 06:25:30;;;;;;;;;;;1.20;99.90;;;;;;5054560;28;19915;-73
2022/02/27 06:27:55;;;;;;;;;;;1.20;99.90;;;;;;5037776;28;19913;-72
2022/02/27 06:30:22;;;;;;;;;;;1.10;99.90;;;;;;5054264;28;19960;-73
2022/02/27 06:32:49;;;;;;;;;;;1.00;99.90;;;;;;5055131;28;19944;-72
2022/02/27 06:35:16;;;;;;;;;;;1.00;99.90;;;;;;5055009;28;19958;-73
2022/02/27 06:37:41;;;;;;;;;;;1.10;99.90;;;;;;5055383;28;20380;-73
2022/02/27 06:40:10;;;;;;;;;;;1.10;99.90;;;;;;5055435;28;19916;-72
2022/02/27 06:42:36;;;;;;;;;;;1.20;99.90;;;;;;5053898;28;19916;-72
2022/02/27 06:45:02;;;;;;;;;;;1.10;99.90;;;;;;5054929;28;20014;-72
2022/02/27 06:47:28;;;;;;;;;;;1.20;99.90;;;;;;5054905;28;20438;-72
2022/02/27 06:49:53;;;;;;;;;;;1.20;99.90;;;;;;5053162;28;19909;-73
2022/02/27 06:52:19;;;;;;;;;;;1.30;99.90;;;;;;5054335;28;19920;-73
2022/02/27 06:54:45;;;;;;;;;;;1.40;99.90;;;;;;5055208;28;20406;-72
2022/02/27 06:57:10;;;;;;;;;;;1.50;99.90;;;;;;5055036;28;19915;-73
2022/02/27 06:59:36;;;;;;;;;;;1.50;99.90;;;;;;5054989;28;20375;-73
2022/02/27 07:02:02;;;;;;;;;;;1.50;99.90;;;;;;5054934;28;19913;-72
2022/02/27 07:04:28;;;;;;;;;;;1.50;99.90;;;;;;5054461;28;19909;-74
2022/02/27 07:06:53;;;;;;;;;;;1.50;99.90;;;;;;5037110;28;19913;-73
2022/02/27 07:09:20;;;;;;;;;;;1.40;99.90;;;;;;5054830;28;19909;-72
2022/02/27 07:11:46;;;;;;;;;;;1.40;99.90;;;;;;5054829;28;19967;-73
2022/02/27 07:14:12;;;;;;;;;;;1.40;99.90;;;;;;5054622;28;19915;-73
2022/02/27 07:16:37;;;;;;;;;;;1.30;99.90;;;;;;5054657;28;19999;-73
2022/02/27 07:19:04;;;;;;;;;;;1.30;99.90;;;;;;5054645;28;20385;-73
2022/02/27 07:21:30;;;;;;;;;;;1.10;99.90;;;;;;5052985;28;19909;-72
2022/02/27 07:23:56;;;;;;;;;;;1.20;99.90;;;;;;5053717;28;19908;-72
2022/02/27 07:26:21;;;;;;;;;;;1.30;99.90;;;;;;5053232;28;19916;-73
2022/02/27 07:28:47;;;;;;;;;;;1.20;99.90;;;;;;5052895;28;19909;-72
2022/02/27 07:31:12;;;;;;;;;;;1.20;99.90;;;;;;5053096;28;19971;-73
2022/02/27 07:33:38;;;;;;;;;;;1.20;99.90;;;;;;5053016;28;19915;-73
2022/02/27 07:36:04;;;;;;;;;;;1.20;99.90;;;;;;5053017;28;19913;-73
2022/02/27 07:38:29;;;;;;;;;;;1.40;99.90;;;;;;5054385;28;19958;-73
2022/02/27 07:40:55;;;;;;;;;;;1.10;99.90;;;;;;5053991;28;19923;-73
2022/02/27 07:43:21;;;;;;;;;;;1.10;99.90;;;;;;5052775;28;19970;-73
2022/02/27 07:45:46;;;;;;;;;;;1.20;99.90;;;;;;5052817;28;20373;-73
2022/02/27 07:48:13;;;;;;;;;;;1.10;99.90;;;;;;5052465;28;19909;-73
2022/02/27 07:50:39;;;;;;;;;;;1.10;99.90;;;;;;5054293;28;20355;-73
2022/02/27 07:53:05;;;;;;;;;;;1.10;99.90;;;;;;5053941;28;19995;-73
2022/02/27 07:55:30;;;;;;;;;;;1.10;99.90;;;;;;5053843;28;19909;-73
2022/02/27 07:57:56;;;;;;;;;;;1.20;99.90;;;;;;5053743;28;19909;-72
2022/02/27 08:00:22;;;;;;;;;;;1.30;99.90;;;;;;5053872;28;19913;-73
2022/02/27 08:02:47;;;;;;;;;;;1.40;99.90;;;;;;5053725;28;19992;-73
2022/02/27 08:05:13;;;;;;;;;;;1.50;99.90;;;;;;5052808;28;19916;-73
2022/02/27 08:07:39;;;;;;;;;;;1.50;99.90;;;;;;5051977;28;19909;-73
2022/02/27 08:10:05;;;;;;;;;;;1.50;99.90;;;;;;5052778;28;20372;-73
2022/02/27 08:12:31;;;;;;;;;;;1.60;99.90;;;;;;5052149;28;20291;-73
2022/02/27 08:14:57;;;;;;;;;;;1.70;99.90;;;;;;5052250;28;19908;-73
2022/02/27 08:17:23;;;;;;;;;;;1.70;99.90;;;;;;5054232;28;19913;-73
2022/02/27 08:19:49;;;;;;;;;;;1.70;99.90;;;;;;5035808;28;19916;-73
2022/02/27 08:22:15;;;;;;;;;;;1.80;99.90;;;;;;5053605;28;20000;-72
2022/02/27 08:24:40;;;;;;;;;;;1.90;99.90;;;;;;5053275;28;19908;-72
2022/02/27 08:27:06;;;;;;;;;;;2.00;99.90;;;;;;5052160;28;20359;-73
2022/02/27 08:29:32;;;;;;;;;;;1.90;99.90;;;;;;5053483;28;20107;-73
2022/02/27 08:31:58;;;;;;;;;;;1.70;99.90;;;;;;5051652;28;19913;-73
2022/02/27 08:34:27;;;;;;;;;;;1.60;99.90;;;;;;5051981;28;19908;-73
2022/02/27 08:36:54;;;;;;;;;;;1.60;99.90;;;;;;5034083;28;19919;-73
2022/02/27 08:39:19;;;;;;;;;;;1.70;99.90;;;;;;5034779;28;19908;-73
2022/02/27 08:41:45;;;;;;;;;;;1.70;99.90;;;;;;5053095;28;20437;-73
2022/02/27 08:44:11;;;;;;;;;;;1.80;99.90;;;;;;5052743;28;19916;-72
2022/02/27 08:46:36;;;;;;;;;;;1.90;99.90;;;;;;5053147;28;19909;-73
2022/02/27 08:49:02;;;;;;;;;;;2.00;99.90;;;;;;5053076;28;20012;-73
2022/02/27 08:51:28;;;;;;;;;;;2.00;99.90;;;;;;5053038;28;19913;-73
2022/02/27 08:53:54;;;;;;;;;;;2.20;99.90;;;;;;5052892;28;19916;-73
2022/02/27 08:56:20;;;;;;;;;;;2.10;99.90;;;;;;5051673;28;19916;-73
2022/02/27 08:58:45;;;;;;;;;;;2.00;99.90;;;;;;5052917;28;20369;-73
2022/02/27 09:01:11;;;;;;;;;;;2.10;99.90;;;;;;5051886;28;19920;-72
2022/02/27 09:03:37;;;;;;;;;;;2.10;99.90;;;;;;5051413;28;19917;-73
2022/02/27 09:06:03;;;;;;;;;;;2.20;99.90;;;;;;5052823;28;20258;-73
2022/02/27 09:08:29;;;;;;;;;;;2.30;99.90;;;;;;5052781;28;19915;-73
2022/02/27 09:10:54;;;;;;;;;;;2.50;99.90;;;;;;5052613;28;19917;-73
2022/02/27 09:13:20;;;;;;;;;;;2.50;99.90;;;;;;5052869;28;19908;-73
2022/02/27 09:15:46;;;;;;;;;;;2.60;99.90;;;;;;5055425;28;20295;-72
2022/02/27 09:18:11;;;;;;;;;;;2.70;99.90;;;;;;5059446;28;19996;-73
2022/02/27 09:20:37;;;;;;;;;;;2.80;99.90;;;;;;5059002;28;19920;-73
2022/02/27 09:23:03;;;;;;;;;;;2.90;99.90;;;;;;5056792;28;19909;-73
2022/02/27 09:25:28;;;;;;;;;;;3.10;99.90;;;;;;5059199;28;19916;-73
2022/02/27 09:27:54;;;;;;;;;;;3.20;99.90;;;;;;5059237;28;19991;-72
2022/02/27 09:30:20;;;;;;;;;;;3.20;99.90;;;;;;5059105;28;19965;-73
2022/02/27 09:32:45;;;;;;;;;;;3.10;99.90;;;;;;5058969;28;19920;-73
2022/02/27 09:35:11;;;;;;;;;;;3.20;99.90;;;;;;5058995;28;19916;-73
2022/02/27 09:37:37;;;;;;;;;;;3.40;99.90;;;;;;5059222;28;19909;-73
2022/02/27 09:40:04;;;;;;;;;;;3.70;99.90;;;;;;5057857;28;19924;-73
2022/02/27 09:42:30;;;;;;;;;;;4.00;99.90;;;;;;5057847;28;19912;-73
2022/02/27 09:44:57;;;;;;;;;;;4.40;99.90;;;;;;5057815;28;19909;-73
2022/02/27 09:47:22;;;;;;;;;;;4.20;99.90;;;;;;5057989;28;19909;-73
2022/02/27 09:49:48;;;;;;;;;;;4.30;99.40;;;;;;5059148;28;19932;-73
2022/02/27 09:52:17;;;;;;;;;;;4.30;97.50;;;;;;5059277;28;20373;-73
2022/02/27 09:54:43;;;;;;;;;;;4.80;97.00;;;;;;5059039;28;19909;-72
2022/02/27 09:57:19;;;;;;;;;;;5.30;96.00;;;;;;5057907;28;19916;-72
2022/02/27 09:59:45;;;;;;;;;;;5.90;94.50;;;;;;5041250;28;20400;-72
2022/02/27 10:02:11;;;;;;;;;;;6.00;91.70;;;;;;5058020;28;19912;-73
2022/02/27 10:04:38;;;;;;;;;;;5.50;91.80;;;;;;5058462;28;20403;-72
2022/02/27 10:07:11;;;;;;;;;;;4.90;92.30;;;;;;5059457;28;19908;-73
2022/02/27 10:09:37;;;;;;;;;;;4.50;93.40;;;;;;5058979;28;19909;-72
2022/02/27 10:12:14;;;;;;;;;;;4.20;94.00;;;;;;5056338;28;20142;-73
2022/02/27 10:14:40;;;;;;;;;;;4.00;94.80;;;;;;5056819;28;20372;-73
2022/02/27 10:17:05;;;;;;;;;;;3.90;95.20;;;;;;5056672;28;20000;-73
2022/02/27 10:19:36;;;;;;;;;;;3.70;96.40;;;;;;5058568;28;19915;-73
2022/02/27 10:22:02;;;;;;;;;;;3.60;96.90;;;;;;5058930;28;19916;-73
2022/02/27 10:24:27;;;;;;;;;;;3.60;97.20;;;;;;5058890;28;19974;-73
2022/02/27 10:26:53;;;;;;;;;;;3.80;97.20;;;;;;5038724;28;19996;-73
2022/02/27 10:29:23;;;;;;;;;;;3.80;96.70;;;;;;5055713;28;19916;-74
2022/02/27 10:31:50;;;;;;;;;;;3.90;97.00;;;;;;5055666;28;20441;-73
2022/02/27 10:34:26;;;;;;;;;;;4.20;96.80;;;;;;5055144;28;19909;-72
2022/02/27 10:37:21;;;;;;;;;;;4.40;96.90;;;;;;5055753;28;20475;-73
2022/02/27 10:42:20;;;;;;;;;;;5.20;91.90;;;;;;5051759;28;19925;-76
2022/02/27 10:44:49;;;;;;;;;;;4.60;91.70;;;;;;5054950;28;19916;-75
2022/02/27 10:47:18;;;;;;;;;;;4.30;92.10;;;;;;5054825;28;20354;-75
2022/02/27 10:49:45;;;;;;;;;;;4.30;91.90;;;;;;5053783;28;20495;-75
2022/02/27 10:52:10;;;;;;;;;;;5.00;91.10;;;;;;5054475;28;19920;-75
2022/02/27 10:54:40;;;;;;;;;;;5.70;89.40;;;;;;5053795;28;19909;-75
2022/02/27 10:57:09;;;;;;;;;;;5.50;87.60;;;;;;5055283;28;19908;-75
2022/02/27 10:59:36;;;;;;;;;;;5.40;87.70;;;;;;5053601;28;19909;-75
2022/02/27 11:02:02;;;;;;;;;;;5.80;88.00;;;;;;5053337;28;19909;-75
2022/02/27 11:04:28;;;;;;;;;;;6.40;85.40;;;;;;5036731;28;19916;-75
2022/02/27 11:06:54;;;;;;;;;;;6.10;83.40;;;;;;5036334;28;20326;-75
2022/02/27 11:09:20;;;;;;;;;;;5.90;82.90;;;;;;5054525;28;19909;-75
2022/02/27 11:11:46;;;;;;;;;;;6.40;82.50;;;;;;5053406;28;20012;-75
2022/02/27 11:14:12;;;;;;;;;;;6.90;79.30;;;;;;5036465;28;19908;-75
2022/02/27 11:16:38;;;;;;;;;;;7.20;77.70;;;;;;5053128;28;20019;-76
2022/02/27 11:19:03;;;;;;;;;;;8.10;75.50;;;;;;5036434;28;19919;-76
2022/02/27 11:21:29;;;;;;;;;;;8.80;70.40;;;;;;5052817;28;19959;-75
2022/02/27 11:23:56;;;;;;;;;;;8.50;69.90;;;;;;5034247;28;19975;-76
2022/02/27 11:26:22;;;;;;;;;;;7.90;71.00;;;;;;5035831;28;19909;-75
2022/02/27 11:28:48;;;;;;;;;;;7.40;72.80;;;;;;5052812;28;19931;-75
2022/02/27 11:31:14;;;;;;;;;;;7.30;74.40;;;;;;5052329;28;20356;-75
2022/02/27 11:33:40;;;;;;;;;;;7.10;74.50;;;;;;5052966;28;19932;-75
2022/02/27 11:36:17;;;;;;;;;;;6.80;74.70;;;;;;5052537;28;19909;-75
2022/02/27 11:38:43;;;;;;;;;;;6.20;75.40;;;;;;5053863;28;20011;-75
2022/02/27 11:41:10;;;;;;;;;;;6.10;77.10;;;;;;5053631;28;19924;-75
2022/02/27 11:43:42;;;;;;;;;;;6.40;76.30;;;;;;5052593;28;19944;-75
2022/02/27 11:46:09;;;;;;;;;;;6.80;75.30;;;;;;5052443;28;19913;-75
2022/02/27 11:48:50;;;;;;;;;;;7.40;73.10;;;;;;5052466;28;20352;-75
2022/02/27 11:51:35;;;;;;;;;;;7.70;69.80;;;;;;5052365;28;19913;-75
2022/02/27 11:54:04;;;;;;;;;;;7.40;69.20;;;;;;5052240;28;20375;-75
2022/02/27 11:56:30;;;;;;;;;;;7.30;70.60;;;;;;5053537;28;20404;-75
2022/02/27 11:58:55;;;;;;;;;;;6.90;70.30;;;;;;5052178;28;19968;-75
2022/02/27 12:01:40;;;;;;;;;;;6.80;70.60;;;;;;5053798;28;19916;-76
2022/02/27 12:04:21;;;;;;;;;;;6.40;70.10;;;;;;5049336;28;19909;-76
2022/02/27 12:07:06;;;;;;;;;;;6.60;70.90;;;;;;5027615;28;19912;-75
2022/02/27 12:09:53;;;;;;;;;;;7.30;68.20;;;;;;5037017;28;20082;-75
2022/02/27 12:12:31;;;;;;;;;;;8.30;66.30;;;;;;5038551;28;19920;-77
2022/02/27 12:15:15;;;;;;;;;;;8.80;62.00;;;;;;5035423;28;19909;-76
2022/02/27 12:17:51;;;;;;;;;;;9.90;59.20;;;;;;5052465;28;20001;-78
2022/02/27 12:20:35;;;;;;;;;;;10.40;56.50;;;;;;5057151;28;19956;-77
2022/02/27 12:23:01;;;;;;;;;;;10.70;55.80;;;;;;5050729;28;19917;-78
2022/02/27 12:25:53;;;;;;;;;;;10.60;55.30;;;;;;5041856;28;19917;-78
2022/02/27 12:28:37;;;;;;;;;;;10.70;56.30;;;;;;5032069;28;19913;-77
2022/02/27 12:31:03;;;;;;;;;;;10.90;55.80;;;;;;5040037;28;20258;-76
2022/02/27 12:33:29;;;;;;;;;;;11.50;56.80;;;;;;5033419;28;19916;-76
2022/02/27 12:35:54;;;;;;;;;;;11.80;53.60;;;;;;5030305;28;19909;-76
2022/02/27 12:38:24;;;;;;;;;;;11.50;53.70;;;;;;5031518;28;19909;-76
2022/02/27 12:40:57;;;;;;;;;;;11.20;52.80;;;;;;5029810;28;19921;-75
2022/02/27 12:43:22;;;;;;;;;;;11.20;52.70;;;;;;5030004;28;19916;-74
2022/02/27 12:45:48;;;;;;;;;;;11.20;54.20;;;;;;5029949;28;20369;-74
2022/02/27 12:48:18;;;;;;;;;;;10.30;54.90;;;;;;5031362;28;19913;-76
2022/02/27 12:50:45;;;;;;;;;;;9.50;55.60;;;;;;5030619;28;19949;-75
2022/02/27 12:53:11;;;;;;;;;;;8.80;57.80;;;;;;5031458;28;20004;-75
2022/02/27 12:55:37;;;;;;;;;;;8.70;59.40;;;;;;5032597;28;19909;-75
2022/02/27 12:58:06;;;;;;;;;;;8.60;58.20;;;;;;5031557;28;19909;-75
2022/02/27 13:00:36;;;;;;;;;;;8.20;59.10;;;;;;5032767;28;20379;-75
2022/02/27 13:03:14;;;;;;;;;;;7.80;59.90;;;;;;5031241;28;20372;-75
2022/02/27 13:05:40;;;;;;;;;;;7.60;61.10;;;;;;5032398;28;19936;-75
2022/02/27 13:08:07;;;;;;;;;;;7.40;61.70;;;;;;5032468;28;19917;-75
2022/02/27 13:10:34;;;;;;;;;;;8.20;60.80;;;;;;5032564;28;19940;-75
2022/02/27 13:13:00;;;;;;;;;;;8.70;59.00;;;;;;5014272;28;20285;-75
2022/02/27 13:15:26;;;;;;;;;;;8.50;58.70;;;;;;5032617;28;19909;-75
2022/02/27 13:17:52;;;;;;;;;;;8.10;59.90;;;;;;5031191;28;19909;-75
2022/02/27 13:20:18;;;;;;;;;;;7.90;61.80;;;;;;5032557;28;20357;-75
2022/02/27 13:22:52;;;;;;;;;;;7.90;61.20;;;;;;5014762;28;19920;-75
2022/02/27 13:25:18;;;;;;;;;;;7.60;61.90;;;;;;5032355;28;19909;-75
2022/02/27 13:27:46;;;;;;;;;;;7.10;62.90;;;;;;5032296;28;19920;-76
2022/02/27 13:30:13;;;;;;;;;;;6.70;63.10;;;;;;5032417;28;19910;-76
2022/02/27 13:32:41;;;;;;;;;;;6.50;64.00;;;;;;5030823;28;19913;-75
2022/02/27 13:35:13;;;;;;;;;;;6.60;64.90;;;;;;5031013;28;19921;-76
2022/02/27 13:37:40;;;;;;;;;;;6.60;66.40;;;;;;5031305;28;20391;-76
2022/02/27 13:40:10;;;;;;;;;;;7.00;64.80;;;;;;5030859;28;20392;-76
2022/02/27 13:42:36;;;;;;;;;;;7.10;64.10;;;;;;5032165;28;19913;-76
2022/02/27 13:45:03;;;;;;;;;;;7.30;63.50;;;;;;5032287;28;19909;-76
2022/02/27 13:47:33;;;;;;;;;;;7.20;60.40;;;;;;5032033;28;19955;-76
2022/02/27 13:49:59;;;;;;;;;;;7.20;59.40;;;;;;5032567;28;19916;-76
2022/02/27 13:52:25;;;;;;;;;;;7.20;59.30;;;;;;5032075;28;20368;-76
2022/02/27 13:54:53;;;;;;;;;;;7.40;61.20;;;;;;5032001;28;20317;-76
2022/02/27 13:57:28;;;;;;;;;;;7.10;62.30;;;;;;5031877;28;19909;-76
2022/02/27 13:59:54;;;;;;;;;;;6.90;63.70;;;;;;5014477;28;19913;-76
2022/02/27 14:02:28;;;;;;;;;;;7.10;64.10;;;;;;5033164;28;19909;-76
2022/02/27 14:05:06;;;;;;;;;;;7.10;62.80;;;;;;5034620;28;19924;-76
2022/02/27 14:07:32;;;;;;;;;;;7.00;63.20;;;;;;5034742;28;19909;-76
2022/02/27 14:09:58;;;;;;;;;;;6.90;63.60;;;;;;5035887;28;19920;-76
2022/02/27 14:12:24;;;;;;;;;;;6.80;63.30;;;;;;5018318;28;20304;-76
2022/02/27 14:14:50;;;;;;;;;;;6.90;63.60;;;;;;5034259;28;20008;-76
2022/02/27 14:17:19;;;;;;;;;;;6.80;63.10;;;;;;5034425;28;19909;-76
2022/02/27 14:19:48;;;;;;;;;;;6.60;63.20;;;;;;5034616;28;19909;-76
2022/02/27 14:22:14;;;;;;;;;;;6.40;63.90;;;;;;5034512;28;20389;-76
2022/02/27 14:24:44;;;;;;;;;;;6.50;64.50;;;;;;5035678;28;19996;-76
2022/02/27 14:27:13;;;;;;;;;;;6.50;63.80;;;;;;5035620;28;19909;-76
2022/02/27 14:29:39;;;;;;;;;;;6.60;63.50;;;;;;5034536;28;19909;-76